Time;durP1;ratioP1;P1;durP2;ratioP2;P2;SDS_P1;SDS_P2;PMS_P1;PMS_P2;Temp;Humidity;BMP_temperature;BMP_pressure;BME280_temperature;BME280_humidity;BME280_pressure;Samples;Min_cycle;Max_cycle;Signal;HPM_P1;HPM_P2
2022/11/09 00:02:27;;;;;;;89.07;24.80;;;;;;;;;;10311823;23;20043;-81
2022/11/09 00:06:32;;;;;;;88.25;25.13;;;;;;;;;;10311552;23;20349;-83
2022/11/09 00:10:36;;;;;;;87.50;23.65;;;;;;;;;;10310036;23;20350;-82
2022/11/09 00:14:44;;;;;;;88.70;26.63;;;;;;;;;;10335202;23;20024;-83
2022/11/09 00:18:52;;;;;;;82.00;26.15;;;;;;;;;;10310191;23;20410;-82
2022/11/09 00:22:55;;;;;;;103.35;28.40;;;;;;;;;;10310170;23;20020;-82
2022/11/09 00:26:59;;;;;;;79.70;25.40;;;;;;;;;;10313456;23;20073;-84
2022/11/09 00:31:08;;;;;;;90.13;26.25;;;;;;;;;;10310929;23;20107;-82
2022/11/09 00:35:12;;;;;;;97.15;27.05;;;;;;;;;;10310681;23;20024;-83
2022/11/09 00:39:17;;;;;;;88.53;24.75;;;;;;;;;;10311124;23;20020;-83
2022/11/09 00:43:19;;;;;;;100.28;24.42;;;;;;;;;;10309868;23;20071;-83
2022/11/09 00:47:23;;;;;;;79.82;23.48;;;;;;;;;;10337007;23;20027;-82
2022/11/09 00:51:26;;;;;;;84.53;25.25;;;;;;;;;;10337213;23;20020;-84
2022/11/09 00:55:31;;;;;;;130.57;28.10;;;;;;;;;;10310965;23;20103;-83
2022/11/09 00:59:36;;;;;;;103.40;29.70;;;;;;;;;;10353868;23;20016;-82
2022/11/09 01:03:44;;;;;;;111.50;29.85;;;;;;;;;;10311116;23;20338;-82
2022/11/09 01:07:47;;;;;;;107.47;29.63;;;;;;;;;;10310668;23;20024;-82
2022/11/09 01:11:52;;;;;;;100.82;27.02;;;;;;;;;;10310110;23;20031;-83
2022/11/09 01:15:58;;;;;;;87.25;23.90;;;;;;;;;;10309036;23;20027;-83
2022/11/09 01:20:04;;;;;;;103.43;24.33;;;;;;;;;;10310366;23;20077;-82
2022/11/09 01:24:10;;;;;;;85.43;23.02;;;;;;;;;;10335182;23;20024;-83
2022/11/09 01:28:12;;;;;;;77.90;22.02;;;;;;;;;;10309013;23;20398;-82
2022/11/09 01:32:18;;;;;;;82.40;23.08;;;;;;;;;;10310080;23;20024;-82
2022/11/09 01:36:24;;;;;;;78.22;23.00;;;;;;;;;;10310023;23;20060;-85
2022/11/09 01:40:28;;;;;;;87.65;23.85;;;;;;;;;;10310623;23;20443;-82
2022/11/09 01:44:32;;;;;;;83.25;23.52;;;;;;;;;;10310240;23;20028;-84
2022/11/09 01:48:41;;;;;;;85.28;23.27;;;;;;;;;;10309217;23;20028;-84
2022/11/09 01:52:49;;;;;;;88.38;25.77;;;;;;;;;;10309979;23;20020;-81
2022/11/09 01:56:57;;;;;;;84.95;26.65;;;;;;;;;;10310079;23;20402;-84
2022/11/09 02:01:01;;;;;;;95.75;24.95;;;;;;;;;;10310078;23;20073;-82
2022/11/09 02:05:09;;;;;;;98.22;23.67;;;;;;;;;;10310198;23;20472;-84
2022/11/09 02:09:21;;;;;;;84.57;22.08;;;;;;;;;;10309609;23;20055;-82
2022/11/09 02:13:28;;;;;;;93.50;22.48;;;;;;;;;;10353312;23;20024;-83
2022/11/09 02:17:32;;;;;;;81.18;21.65;;;;;;;;;;10310320;23;20159;-86
2022/11/09 02:21:39;;;;;;;65.00;18.45;;;;;;;;;;10309428;23;20031;-82
2022/11/09 02:25:43;;;;;;;93.63;22.77;;;;;;;;;;10309375;23;20027;-83
2022/11/09 02:29:51;;;;;;;86.50;21.17;;;;;;;;;;10334700;23;20020;-84
2022/11/09 02:33:55;;;;;;;91.75;21.38;;;;;;;;;;10352274;23;20020;-82
2022/11/09 02:38:00;;;;;;;75.85;23.00;;;;;;;;;;10308841;23;20031;-83
2022/11/09 02:42:08;;;;;;;94.47;23.92;;;;;;;;;;10337432;23;20437;-83
2022/11/09 02:46:11;;;;;;;106.40;24.02;;;;;;;;;;10311528;23;20023;-84
2022/11/09 02:50:16;;;;;;;99.75;24.45;;;;;;;;;;10311432;23;20027;-82
2022/11/09 02:54:23;;;;;;;118.35;27.35;;;;;;;;;;10312668;23;20533;-82
2022/11/09 02:58:25;;;;;;;128.77;27.52;;;;;;;;;;10312682;23;20051;-81
2022/11/09 03:02:31;;;;;;;94.20;22.17;;;;;;;;;;10338518;23;20027;-84
2022/11/09 03:06:37;;;;;;;103.75;22.00;;;;;;;;;;10312323;23;20035;-86
2022/11/09 03:10:44;;;;;;;114.35;27.85;;;;;;;;;;10310231;23;20024;-83
2022/11/09 03:14:47;;;;;;;120.93;28.13;;;;;;;;;;10355149;23;20027;-84
2022/11/09 03:18:50;;;;;;;105.82;22.60;;;;;;;;;;10311906;23;20102;-84
2022/11/09 03:23:00;;;;;;;90.20;21.98;;;;;;;;;;10311730;23;20031;-84
2022/11/09 03:27:07;;;;;;;129.95;27.08;;;;;;;;;;10311830;23;20077;-86
2022/11/09 03:31:12;;;;;;;106.97;25.05;;;;;;;;;;10311315;23;20107;-85
2022/11/09 03:35:18;;;;;;;103.47;25.95;;;;;;;;;;10311232;23;20075;-84
2022/11/09 03:39:20;;;;;;;112.78;24.73;;;;;;;;;;10310823;23;20031;-82
2022/11/09 03:43:30;;;;;;;125.63;26.35;;;;;;;;;;10312367;23;20042;-83
2022/11/09 03:47:33;;;;;;;128.88;25.35;;;;;;;;;;10343658;23;20055;-83
2022/11/09 03:51:38;;;;;;;95.70;24.42;;;;;;;;;;10338207;23;20020;-84
2022/11/09 03:55:43;;;;;;;101.53;23.88;;;;;;;;;;10311747;23;20027;-82
2022/11/09 03:59:50;;;;;;;124.57;30.35;;;;;;;;;;10311974;23;20020;-82
2022/11/09 04:03:55;;;;;;;120.95;31.88;;;;;;;;;;10311956;23;20020;-82
2022/11/09 04:07:59;;;;;;;103.25;25.30;;;;;;;;;;10311777;23;20020;-81
2022/11/09 04:12:04;;;;;;;136.55;36.00;;;;;;;;;;10337961;23;20023;-82
2022/11/09 04:16:09;;;;;;;100.97;27.98;;;;;;;;;;10311990;23;20024;-81
2022/11/09 04:20:12;;;;;;;111.13;29.88;;;;;;;;;;10311216;23;20512;-83
2022/11/09 04:24:15;;;;;;;102.60;29.25;;;;;;;;;;10311420;23;20035;-83
2022/11/09 04:28:18;;;;;;;94.18;27.38;;;;;;;;;;10338152;23;20016;-82
2022/11/09 04:32:26;;;;;;;124.78;32.45;;;;;;;;;;10311364;23;20090;-85
2022/11/09 04:36:31;;;;;;;134.35;36.25;;;;;;;;;;10311430;23;20026;-81
2022/11/09 04:40:38;;;;;;;117.55;32.65;;;;;;;;;;10311190;23;20020;-83
2022/11/09 04:44:43;;;;;;;110.28;26.27;;;;;;;;;;10311218;22;20024;-82
2022/11/09 04:48:49;;;;;;;121.68;27.23;;;;;;;;;;10311808;23;20020;-83
2022/11/09 04:52:54;;;;;;;110.00;23.92;;;;;;;;;;10311378;23;20032;-82
2022/11/09 04:57:00;;;;;;;145.55;35.47;;;;;;;;;;10311067;23;20024;-82
2022/11/09 05:01:06;;;;;;;177.27;44.22;;;;;;;;;;10311089;23;20024;-82
2022/11/09 05:05:10;;;;;;;121.93;25.50;;;;;;;;;;10354086;23;20016;-82
2022/11/09 05:09:12;;;;;;;196.73;47.50;;;;;;;;;;10311387;23;20467;-82
2022/11/09 05:13:18;;;;;;;130.52;27.05;;;;;;;;;;10311892;23;20513;-82
2022/11/09 05:17:20;;;;;;;118.85;26.02;;;;;;;;;;10338634;23;20020;-83
2022/11/09 05:21:26;;;;;;;99.85;22.58;;;;;;;;;;10337983;23;20020;-82
2022/11/09 05:25:28;;;;;;;141.45;31.75;;;;;;;;;;10311377;23;20031;-83
2022/11/09 05:29:31;;;;;;;133.18;31.30;;;;;;;;;;10310704;23;20023;-83
2022/11/09 05:33:34;;;;;;;110.22;26.25;;;;;;;;;;10337041;23;20035;-82
2022/11/09 05:37:39;;;;;;;117.68;25.73;;;;;;;;;;10337447;23;20027;-84
2022/11/09 05:41:42;;;;;;;102.85;28.92;;;;;;;;;;10337626;23;20432;-82
2022/11/09 05:45:45;;;;;;;108.13;30.08;;;;;;;;;;10337077;22;20020;-82
2022/11/09 05:49:47;;;;;;;127.15;27.80;;;;;;;;;;10310456;23;20016;-82
2022/11/09 05:53:51;;;;;;;104.60;29.08;;;;;;;;;;10337155;23;20322;-83
2022/11/09 05:57:54;;;;;;;107.63;28.35;;;;;;;;;;10333661;23;20405;-86
2022/11/09 06:01:57;;;;;;;102.35;35.80;;;;;;;;;;10336091;23;20024;-85
2022/11/09 06:06:02;;;;;;;104.70;32.15;;;;;;;;;;10336697;23;20047;-88
2022/11/09 06:10:07;;;;;;;167.10;59.63;;;;;;;;;;10336298;23;20024;-83
2022/11/09 06:14:10;;;;;;;124.05;33.38;;;;;;;;;;10353057;23;20073;-82
2022/11/09 06:18:15;;;;;;;76.30;24.10;;;;;;;;;;10309052;23;20043;-83
2022/11/09 06:22:18;;;;;;;89.43;24.98;;;;;;;;;;10311602;23;20067;-82
2022/11/09 06:26:27;;;;;;;132.77;46.65;;;;;;;;;;10311829;23;20591;-82
2022/11/09 06:30:30;;;;;;;85.00;32.95;;;;;;;;;;10340089;23;20445;-82
2022/11/09 06:34:36;;;;;;;139.13;44.22;;;;;;;;;;10312844;23;20072;-83
2022/11/09 06:38:38;;;;;;;119.88;35.85;;;;;;;;;;10310938;23;20729;-87
2022/11/09 06:42:43;;;;;;;91.15;28.95;;;;;;;;;;10307686;23;20034;-83
2022/11/09 06:46:46;;;;;;;102.22;34.13;;;;;;;;;;10311861;23;20024;-86
2022/11/09 07:06:57;;;;;;;69.63;21.88;;;;;;;;;;10234431;23;20151;-83
2022/11/09 07:11:05;;;;;;;73.80;25.65;;;;;;;;;;10436865;22;20023;-82
2022/11/09 07:15:08;;;;;;;67.47;20.98;;;;;;;;;;10458360;22;20319;-82
2022/11/09 07:19:11;;;;;;;53.63;22.35;;;;;;;;;;10439073;22;20528;-82
2022/11/09 07:23:13;;;;;;;43.65;20.77;;;;;;;;;;10439482;22;20015;-82
2022/11/09 07:27:17;;;;;;;41.47;18.55;;;;;;;;;;10441077;22;20095;-82
2022/11/09 07:31:19;;;;;;;42.15;20.90;;;;;;;;;;10441292;22;20023;-82
2022/11/09 07:35:22;;;;;;;42.80;20.17;;;;;;;;;;10440565;22;20390;-82
2022/11/09 07:39:25;;;;;;;46.08;18.80;;;;;;;;;;10440184;22;20022;-81
2022/11/09 07:43:30;;;;;;;38.65;16.58;;;;;;;;;;10440132;22;20018;-84
2022/11/09 07:47:34;;;;;;;34.15;17.40;;;;;;;;;;10451646;22;20023;-84
2022/11/09 07:55:57;;;;;;;30.77;14.38;;;;;;;;;;10437386;22;20023;-84
2022/11/09 08:00:02;;;;;;;26.60;14.85;;;;;;;;;;10455474;22;20019;-85
2022/11/09 08:04:05;;;;;;;22.60;11.65;;;;;;;;;;10439293;22;20452;-85
2022/11/09 08:08:10;;;;;;;23.02;10.85;;;;;;;;;;10439714;22;20023;-84
2022/11/09 08:12:13;;;;;;;25.52;13.85;;;;;;;;;;10438571;22;20080;-84
2022/11/09 08:16:19;;;;;;;27.85;15.00;;;;;;;;;;10406595;22;20012;-93
2022/11/09 08:20:21;;;;;;;24.10;12.77;;;;;;;;;;10302841;23;20020;-94
2022/11/09 08:24:24;;;;;;;26.25;13.02;;;;;;;;;;10280086;23;20440;-93
2022/11/09 08:28:27;;;;;;;31.40;13.60;;;;;;;;;;10281704;23;20016;-92
2022/11/09 08:32:31;;;;;;;29.25;15.20;;;;;;;;;;10284954;23;20023;-91
2022/11/09 08:36:35;;;;;;;26.27;12.88;;;;;;;;;;10286897;23;20021;-92
2022/11/09 08:40:37;;;;;;;31.20;15.93;;;;;;;;;;10287029;23;20012;-91
2022/11/09 08:44:40;;;;;;;26.52;13.20;;;;;;;;;;10286071;23;20032;-92
2022/11/09 08:48:44;;;;;;;24.95;12.65;;;;;;;;;;10286703;23;20025;-91
2022/11/09 08:52:46;;;;;;;27.95;14.35;;;;;;;;;;10286645;23;20016;-91
2022/11/09 08:56:49;;;;;;;20.27;9.52;;;;;;;;;;10286482;23;20024;-93
2022/11/09 09:00:51;;;;;;;24.52;14.10;;;;;;;;;;10286758;23;20028;-92
2022/11/09 09:04:55;;;;;;;23.95;13.82;;;;;;;;;;10286560;23;20027;-90
2022/11/09 09:08:58;;;;;;;25.38;12.95;;;;;;;;;;10284623;23;20021;-91
2022/11/09 09:13:01;;;;;;;26.17;13.75;;;;;;;;;;10286323;23;20031;-91
2022/11/09 09:17:04;;;;;;;24.02;13.98;;;;;;;;;;10286787;23;20389;-92
2022/11/09 09:21:10;;;;;;;23.50;13.88;;;;;;;;;;10257629;23;20055;-91
2022/11/09 09:25:13;;;;;;;18.05;9.60;;;;;;;;;;10285015;23;20024;-91
2022/11/09 09:29:16;;;;;;;20.73;12.75;;;;;;;;;;10285036;23;20020;-93
2022/11/09 09:33:18;;;;;;;23.80;12.07;;;;;;;;;;10286149;23;20028;-93
2022/11/09 09:37:23;;;;;;;30.15;13.15;;;;;;;;;;10286223;23;20096;-91
2022/11/09 09:41:35;;;;;;;21.83;13.73;;;;;;;;;;10287108;23;20024;-93
2022/11/09 09:45:49;;;;;;;17.08;10.60;;;;;;;;;;10303721;23;20017;-92
2022/11/09 09:49:56;;;;;;;20.58;12.98;;;;;;;;;;10304175;23;20017;-92
2022/11/09 09:54:17;;;;;;;21.67;13.70;;;;;;;;;;10307122;23;20043;-91
2022/11/09 09:58:25;;;;;;;21.70;12.65;;;;;;;;;;10307024;23;20021;-92
2022/11/09 10:02:30;;;;;;;25.17;13.77;;;;;;;;;;10306768;23;20389;-90
2022/11/09 10:06:43;;;;;;;21.25;12.93;;;;;;;;;;10289963;23;20024;-92
2022/11/09 10:11:01;;;;;;;24.80;13.45;;;;;;;;;;10305424;23;20013;-94
2022/11/09 10:15:17;;;;;;;26.85;13.63;;;;;;;;;;10306324;23;20508;-91
2022/11/09 10:19:35;;;;;;;25.25;12.82;;;;;;;;;;10293147;23;20032;-92
2022/11/09 10:23:50;;;;;;;24.92;13.35;;;;;;;;;;10306158;23;20013;-92
2022/11/09 10:27:56;;;;;;;25.98;13.75;;;;;;;;;;10289814;23;20103;-93
2022/11/09 10:32:09;;;;;;;26.17;13.73;;;;;;;;;;10306272;23;20016;-92
2022/11/09 10:36:20;;;;;;;26.45;13.95;;;;;;;;;;10302805;23;20016;-92
2022/11/09 10:40:26;;;;;;;25.63;13.70;;;;;;;;;;10302720;23;20546;-91
2022/11/09 10:44:31;;;;;;;26.15;13.23;;;;;;;;;;10288358;23;20107;-92
2022/11/09 10:48:35;;;;;;;26.23;14.10;;;;;;;;;;10289376;23;20553;-91
2022/11/09 10:52:41;;;;;;;26.77;14.27;;;;;;;;;;10338853;22;20001;-92
2022/11/09 10:56:45;;;;;;;24.40;13.77;;;;;;;;;;10351469;22;20004;-93
2022/11/09 11:01:02;;;;;;;28.17;13.93;;;;;;;;;;10336226;22;20060;-90
2022/11/09 11:05:39;;;;;;;26.70;13.73;;;;;;;;;;10346763;22;20503;-91
2022/11/09 11:09:42;;;;;;;26.55;14.43;;;;;;;;;;10288498;23;20083;-91
2022/11/09 11:13:47;;;;;;;26.90;14.02;;;;;;;;;;10259749;23;20057;-91
2022/11/09 11:18:00;;;;;;;28.52;13.93;;;;;;;;;;10285723;23;20104;-92
2022/11/09 11:22:21;;;;;;;26.63;15.00;;;;;;;;;;10304613;23;20020;-92
2022/11/09 11:26:35;;;;;;;25.02;14.48;;;;;;;;;;10305662;23;20099;-91
2022/11/09 11:30:39;;;;;;;28.42;15.00;;;;;;;;;;10305319;23;20028;-91
2022/11/09 11:34:44;;;;;;;29.95;13.63;;;;;;;;;;10288662;23;20508;-92
2022/11/09 11:38:55;;;;;;;27.38;14.10;;;;;;;;;;10288628;23;20099;-90
2022/11/09 11:43:24;;;;;;;22.00;12.52;;;;;;;;;;10305427;23;20021;-91
2022/11/09 11:47:37;;;;;;;26.73;13.85;;;;;;;;;;10305165;23;20021;-90
2022/11/09 11:51:49;;;;;;;27.33;13.73;;;;;;;;;;10305117;23;20024;-91
2022/11/09 11:56:14;;;;;;;26.20;14.10;;;;;;;;;;10305308;23;20024;-90
2022/11/09 12:00:20;;;;;;;27.70;14.73;;;;;;;;;;10304894;23;20026;-91
2022/11/09 12:04:42;;;;;;;23.90;13.27;;;;;;;;;;10305228;23;20027;-91
2022/11/09 12:09:03;;;;;;;22.02;10.82;;;;;;;;;;10304645;23;20025;-91
2022/11/09 12:13:16;;;;;;;27.92;14.05;;;;;;;;;;10304212;23;20091;-91
2022/11/09 12:17:28;;;;;;;27.20;13.63;;;;;;;;;;10299373;23;20030;-91
2022/11/09 12:21:37;;;;;;;24.17;13.80;;;;;;;;;;10288049;23;20013;-91
2022/11/09 12:25:47;;;;;;;25.85;13.55;;;;;;;;;;10304523;23;20103;-91
2022/11/09 12:29:57;;;;;;;27.45;14.30;;;;;;;;;;10304546;23;20016;-91
2022/11/09 12:34:06;;;;;;;23.90;13.00;;;;;;;;;;10304333;23;20460;-91
2022/11/09 12:38:14;;;;;;;24.45;13.40;;;;;;;;;;10304366;23;20318;-91
2022/11/09 12:42:23;;;;;;;22.65;12.27;;;;;;;;;;10304187;23;20017;-90
2022/11/09 12:46:32;;;;;;;25.95;12.13;;;;;;;;;;10304121;23;20066;-92
2022/11/09 12:50:36;;;;;;;22.52;12.95;;;;;;;;;;10260961;23;20548;-91
2022/11/09 12:54:42;;;;;;;24.95;13.13;;;;;;;;;;10287380;23;20345;-91
2022/11/09 12:58:47;;;;;;;22.42;12.35;;;;;;;;;;10303757;23;20344;-91
2022/11/09 13:02:56;;;;;;;23.38;12.18;;;;;;;;;;10287117;23;20021;-90
2022/11/09 13:07:27;;;;;;;21.40;12.10;;;;;;;;;;10303735;23;20453;-92
2022/11/09 13:11:37;;;;;;;25.40;12.68;;;;;;;;;;10303914;23;20377;-91
2022/11/09 13:16:07;;;;;;;23.52;12.88;;;;;;;;;;10260430;23;20032;-91
2022/11/09 13:20:39;;;;;;;23.40;12.05;;;;;;;;;;10304362;23;20025;-91
2022/11/09 13:24:51;;;;;;;23.98;12.40;;;;;;;;;;10303448;23;20012;-91
2022/11/09 13:29:10;;;;;;;25.55;12.18;;;;;;;;;;10303599;23;20148;-91
2022/11/09 13:33:25;;;;;;;26.38;12.93;;;;;;;;;;10303474;23;20345;-91
2022/11/09 13:37:53;;;;;;;23.20;12.13;;;;;;;;;;10286859;23;20345;-90
2022/11/09 13:41:56;;;;;;;22.40;10.65;;;;;;;;;;10303423;23;20029;-90
2022/11/09 13:46:00;;;;;;;23.05;11.63;;;;;;;;;;10287220;23;20070;-91
2022/11/09 13:50:17;;;;;;;24.88;13.32;;;;;;;;;;10286595;23;20016;-90
2022/11/09 13:54:30;;;;;;;27.13;12.32;;;;;;;;;;10303358;23;20020;-90
2022/11/09 13:58:37;;;;;;;29.48;11.90;;;;;;;;;;10286525;23;20024;-90
2022/11/09 14:02:40;;;;;;;31.13;13.23;;;;;;;;;;10303317;23;20044;-91
2022/11/09 14:06:45;;;;;;;26.42;13.27;;;;;;;;;;10286709;23;20032;-91
2022/11/09 14:11:19;;;;;;;19.33;11.25;;;;;;;;;;10286607;23;20017;-90
2022/11/09 14:15:31;;;;;;;25.30;12.63;;;;;;;;;;10237814;23;20028;-90
2022/11/09 14:19:41;;;;;;;23.73;11.57;;;;;;;;;;10329248;23;20028;-91
2022/11/09 14:23:45;;;;;;;23.25;11.95;;;;;;;;;;10353587;23;20027;-91
2022/11/09 14:27:55;;;;;;;22.27;10.95;;;;;;;;;;10336672;23;20023;-91
2022/11/09 14:31:59;;;;;;;23.45;11.95;;;;;;;;;;10353326;23;20023;-91
2022/11/09 14:36:04;;;;;;;25.27;12.15;;;;;;;;;;10337351;23;20024;-90
2022/11/09 14:40:22;;;;;;;23.52;12.57;;;;;;;;;;10356664;23;20023;-90
2022/11/09 14:44:28;;;;;;;30.98;12.75;;;;;;;;;;10356571;23;20016;-90
2022/11/09 14:48:35;;;;;;;22.63;11.82;;;;;;;;;;10356492;23;20016;-90
2022/11/09 14:52:37;;;;;;;27.10;13.57;;;;;;;;;;10356404;23;20016;-90
2022/11/09 14:56:43;;;;;;;25.02;12.13;;;;;;;;;;10339718;23;20045;-90
2022/11/09 15:00:45;;;;;;;27.30;12.35;;;;;;;;;;10339412;23;20077;-90
2022/11/09 15:04:52;;;;;;;28.45;12.95;;;;;;;;;;10338170;23;20073;-90
2022/11/09 15:08:57;;;;;;;26.92;13.25;;;;;;;;;;10336524;23;20027;-90
2022/11/09 15:13:03;;;;;;;35.50;16.70;;;;;;;;;;10338249;23;20024;-90
2022/11/09 15:17:14;;;;;;;35.05;19.02;;;;;;;;;;10346644;23;20024;-89
2022/11/09 15:21:20;;;;;;;31.40;16.97;;;;;;;;;;10354235;23;20016;-91
2022/11/09 15:25:26;;;;;;;32.17;16.33;;;;;;;;;;10334833;23;20016;-90
2022/11/09 15:29:39;;;;;;;32.88;14.27;;;;;;;;;;10354598;23;20436;-91
2022/11/09 15:33:47;;;;;;;35.95;15.05;;;;;;;;;;10310454;23;20105;-91
2022/11/09 15:37:52;;;;;;;61.67;20.73;;;;;;;;;;10354777;23;20044;-91
2022/11/09 15:41:56;;;;;;;50.53;20.00;;;;;;;;;;10370820;22;20001;-92
2022/11/09 15:46:01;;;;;;;43.67;21.75;;;;;;;;;;10386011;22;20094;-91
2022/11/09 15:50:08;;;;;;;39.97;18.15;;;;;;;;;;10386854;22;20016;-89
2022/11/09 15:54:11;;;;;;;29.02;12.95;;;;;;;;;;10330191;23;20031;-92
2022/11/09 15:58:15;;;;;;;32.47;13.90;;;;;;;;;;10340145;23;20024;-93
2022/11/09 16:02:20;;;;;;;52.25;24.70;;;;;;;;;;10337723;23;20026;-92
2022/11/09 16:06:22;;;;;;;29.50;12.63;;;;;;;;;;10335149;23;20027;-91
2022/11/09 16:10:28;;;;;;;33.08;13.57;;;;;;;;;;10335589;23;20086;-91
2022/11/09 16:14:31;;;;;;;39.17;16.13;;;;;;;;;;10334559;23;20131;-92
2022/11/09 16:18:36;;;;;;;79.57;42.10;;;;;;;;;;10333528;23;20404;-92
2022/11/09 16:22:38;;;;;;;59.05;31.40;;;;;;;;;;10334348;23;20063;-92
2022/11/09 16:26:42;;;;;;;51.33;24.45;;;;;;;;;;10332469;23;20452;-92
2022/11/09 16:30:44;;;;;;;49.58;22.17;;;;;;;;;;10332496;23;20020;-93
2022/11/09 16:34:49;;;;;;;61.00;25.90;;;;;;;;;;10332574;23;20023;-91
2022/11/09 16:38:53;;;;;;;68.38;32.13;;;;;;;;;;10333850;23;20024;-93
2022/11/09 16:42:59;;;;;;;73.90;36.33;;;;;;;;;;10334228;23;20023;-92
2022/11/09 16:47:04;;;;;;;63.78;31.13;;;;;;;;;;10332452;23;20019;-92
2022/11/09 16:51:09;;;;;;;59.88;28.77;;;;;;;;;;10350222;23;20046;-92
2022/11/09 16:55:12;;;;;;;54.17;24.13;;;;;;;;;;10331682;23;20436;-93
2022/11/09 16:59:15;;;;;;;49.33;20.08;;;;;;;;;;10334316;23;20082;-92
2022/11/09 17:03:18;;;;;;;49.65;19.88;;;;;;;;;;10334752;23;20096;-91
2022/11/09 17:07:23;;;;;;;45.13;18.02;;;;;;;;;;10333848;23;20027;-91
2022/11/09 17:11:26;;;;;;;49.25;19.08;;;;;;;;;;10334143;23;20436;-92
2022/11/09 17:15:29;;;;;;;55.58;22.10;;;;;;;;;;10330011;23;20135;-92
2022/11/09 17:19:32;;;;;;;63.90;23.60;;;;;;;;;;10332487;23;20085;-92
2022/11/09 17:23:38;;;;;;;58.80;21.98;;;;;;;;;;10332851;23;20444;-93
2022/11/09 17:27:59;;;;;;;65.15;25.98;;;;;;;;;;10332016;23;20024;-91
2022/11/09 17:32:23;;;;;;;131.77;69.53;;;;;;;;;;10346493;23;20023;-92
2022/11/09 17:36:37;;;;;;;63.58;27.25;;;;;;;;;;10332072;23;20016;-92
2022/11/09 17:40:59;;;;;;;56.05;25.70;;;;;;;;;;10332114;23;20082;-93
2022/11/09 17:49:44;;;;;;;54.53;21.85;;;;;;;;;;10329469;23;20024;-92
2022/11/09 17:54:13;;;;;;;62.47;31.00;;;;;;;;;;10329546;23;20340;-92
2022/11/09 18:12:40;;;;;;;57.45;21.80;;;;;;;;;;10332733;23;20020;-93
2022/11/09 18:17:18;;;;;;;64.22;21.35;;;;;;;;;;10272591;23;20024;-93
2022/11/09 18:21:27;;;;;;;62.42;23.27;;;;;;;;;;10307243;23;20090;-93
2022/11/09 18:25:32;;;;;;;58.40;23.05;;;;;;;;;;10336680;23;20019;-93
2022/11/09 18:29:46;;;;;;;76.40;31.42;;;;;;;;;;10335180;23;20020;-94
2022/11/09 18:34:09;;;;;;;54.70;26.05;;;;;;;;;;10352986;23;20020;-92
2022/11/09 18:39:02;;;;;;;60.38;25.52;;;;;;;;;;10327838;23;20534;-94
2022/11/09 18:47:55;;;;;;;47.67;20.33;;;;;;;;;;10352046;23;20114;-94
2022/11/09 18:51:59;;;;;;;81.25;36.72;;;;;;;;;;10335559;23;20054;-94
2022/11/09 18:56:04;;;;;;;76.22;31.45;;;;;;;;;;10335288;23;20031;-94
2022/11/09 19:00:09;;;;;;;55.25;23.30;;;;;;;;;;10353568;23;20098;-93
2022/11/09 19:04:14;;;;;;;51.28;23.48;;;;;;;;;;10335690;23;20353;-94
2022/11/09 19:09:27;;;;;;;61.10;25.27;;;;;;;;;;10308793;23;20039;-94
2022/11/09 19:12:43;;;;;;;67.13;30.00;;;;;;;;;;10308632;23;20027;-94
2022/11/09 19:16:46;;;;;;;59.20;24.80;;;;;;;;;;10336095;23;20024;-95
2022/11/09 19:20:49;;;;;;;66.30;29.65;;;;;;;;;;10335870;23;20016;-94
2022/11/09 19:24:54;;;;;;;69.85;30.85;;;;;;;;;;10337877;23;20024;-95
2022/11/09 19:28:57;;;;;;;51.63;21.88;;;;;;;;;;10338398;23;20020;-93
2022/11/09 19:33:02;;;;;;;47.95;24.75;;;;;;;;;;10336173;23;20012;-94
2022/11/09 19:37:04;;;;;;;62.20;28.92;;;;;;;;;;10336485;23;20066;-95
2022/11/09 19:41:11;;;;;;;55.20;27.08;;;;;;;;;;10336880;23;20348;-95
2022/11/09 19:45:14;;;;;;;53.58;24.33;;;;;;;;;;10338648;23;20020;-96
2022/11/09 19:49:18;;;;;;;58.67;24.10;;;;;;;;;;10338423;23;20020;-94
2022/11/09 19:53:20;;;;;;;66.10;25.27;;;;;;;;;;10337693;23;20046;-95
2022/11/09 19:57:26;;;;;;;63.13;26.85;;;;;;;;;;10337974;23;20452;-95
2022/11/09 20:01:30;;;;;;;54.25;24.20;;;;;;;;;;10336769;23;20051;-95
2022/11/09 20:05:35;;;;;;;56.03;23.58;;;;;;;;;;10337173;23;20342;-93
2022/11/09 20:09:37;;;;;;;39.85;19.08;;;;;;;;;;10335203;23;20024;-94
2022/11/09 20:13:42;;;;;;;46.67;20.63;;;;;;;;;;10336052;23;20069;-94
2022/11/09 20:17:45;;;;;;;83.28;34.85;;;;;;;;;;10336882;23;20051;-95
2022/11/09 20:21:49;;;;;;;69.88;26.60;;;;;;;;;;10337598;23;20099;-95
2022/11/09 20:25:52;;;;;;;46.38;20.52;;;;;;;;;;10336917;23;20039;-95
2022/11/09 20:29:58;;;;;;;69.63;26.27;;;;;;;;;;10309583;23;20028;-93
2022/11/09 20:34:01;;;;;;;83.35;30.60;;;;;;;;;;10307921;23;20399;-92
2022/11/09 20:38:04;;;;;;;77.57;32.53;;;;;;;;;;10336686;23;20027;-92
2022/11/09 20:42:07;;;;;;;102.30;38.58;;;;;;;;;;10336587;23;20069;-91
2022/11/09 20:46:18;;;;;;;67.32;27.08;;;;;;;;;;10338077;23;20021;-93
2022/11/09 20:50:21;;;;;;;66.72;26.73;;;;;;;;;;10338915;23;20032;-93
2022/11/09 20:54:25;;;;;;;63.28;24.20;;;;;;;;;;10337707;23;20020;-94
2022/11/09 20:58:28;;;;;;;65.40;22.27;;;;;;;;;;10338497;23;20385;-93
2022/11/09 21:02:33;;;;;;;52.47;21.20;;;;;;;;;;10338332;23;20020;-94
2022/11/09 21:06:36;;;;;;;57.17;21.08;;;;;;;;;;10338100;23;20057;-93
2022/11/09 21:10:39;;;;;;;55.60;24.45;;;;;;;;;;10309822;23;20046;-93
2022/11/09 21:14:42;;;;;;;94.28;32.83;;;;;;;;;;10337184;23;20024;-94
2022/11/09 21:18:47;;;;;;;54.35;20.67;;;;;;;;;;10337780;23;20035;-94
2022/11/09 21:31:41;;;;;;;59.90;20.53;;;;;;;;;;10354880;23;20077;-94
2022/11/09 21:35:46;;;;;;;80.35;25.75;;;;;;;;;;10339496;23;20446;-95
2022/11/09 21:39:49;;;;;;;70.70;23.48;;;;;;;;;;10337914;23;20020;-94
2022/11/09 21:43:52;;;;;;;76.78;25.20;;;;;;;;;;10339516;23;20027;-95
2022/11/09 21:47:55;;;;;;;83.32;31.13;;;;;;;;;;10344389;23;20095;-94
2022/11/09 21:52:00;;;;;;;95.60;29.83;;;;;;;;;;10344471;23;20432;-93
2022/11/09 21:56:02;;;;;;;66.28;24.77;;;;;;;;;;10344862;23;20016;-95
2022/11/09 22:00:08;;;;;;;65.03;23.48;;;;;;;;;;10344690;23;20100;-94
2022/11/09 22:04:10;;;;;;;66.75;21.45;;;;;;;;;;10345079;23;20475;-94
2022/11/09 22:08:15;;;;;;;108.05;28.38;;;;;;;;;;10345686;23;20023;-95
2022/11/09 22:16:37;;;;;;;90.88;27.17;;;;;;;;;;10344711;23;20020;-96
2022/11/09 22:20:55;;;;;;;65.13;21.90;;;;;;;;;;10362586;23;20155;-96
2022/11/09 22:24:59;;;;;;;58.80;21.38;;;;;;;;;;10363291;23;20042;-94
2022/11/09 22:29:02;;;;;;;82.45;27.85;;;;;;;;;;10346196;23;20016;-95
2022/11/09 22:33:04;;;;;;;68.05;27.42;;;;;;;;;;10369082;22;20027;-93
2022/11/09 22:37:07;;;;;;;75.18;25.67;;;;;;;;;;10389664;22;20107;-93
2022/11/09 22:41:15;;;;;;;79.53;26.38;;;;;;;;;;10389658;22;20042;-94
2022/11/09 22:45:17;;;;;;;78.97;25.05;;;;;;;;;;10390469;22;20030;-94
2022/11/09 22:49:20;;;;;;;78.78;29.05;;;;;;;;;;10391459;22;20020;-93
2022/11/09 22:53:22;;;;;;;72.40;25.27;;;;;;;;;;10391093;22;20023;-94
2022/11/09 22:57:27;;;;;;;78.55;25.60;;;;;;;;;;10359043;22;20520;-95
2022/11/09 23:01:29;;;;;;;103.65;29.58;;;;;;;;;;10343699;23;20325;-94
2022/11/09 23:05:32;;;;;;;104.47;28.50;;;;;;;;;;10343195;23;20020;-91
2022/11/09 23:09:35;;;;;;;85.72;26.63;;;;;;;;;;10344516;23;20016;-95
2022/11/09 23:13:39;;;;;;;83.18;26.95;;;;;;;;;;10343791;23;20392;-94
2022/11/09 23:22:02;;;;;;;86.38;26.60;;;;;;;;;;10361154;23;20064;-93
2022/11/09 23:26:05;;;;;;;81.40;27.23;;;;;;;;;;10346246;23;20046;-96
2022/11/09 23:30:13;;;;;;;92.30;27.63;;;;;;;;;;10352386;23;20020;-92
2022/11/09 23:34:15;;;;;;;93.47;26.10;;;;;;;;;;10337909;23;20380;-95
2022/11/09 23:38:18;;;;;;;82.38;25.38;;;;;;;;;;10357701;23;20087;-91
2022/11/09 23:42:21;;;;;;;89.47;24.63;;;;;;;;;;10340265;23;20016;-93
2022/11/09 23:46:25;;;;;;;89.68;26.85;;;;;;;;;;10340500;23;20020;-92
2022/11/09 23:50:28;;;;;;;87.20;25.65;;;;;;;;;;10340574;23;20024;-91
2022/11/09 23:54:31;;;;;;;78.85;25.67;;;;;;;;;;10340893;23;20440;-93
2022/11/09 23:58:34;;;;;;;71.55;22.23;;;;;;;;;;10342820;23;20046;-95
